createdAt,value
2019-02-21T00:02:56.825Z,4.40
2019-02-21T00:08:01.502Z,4.30
2019-02-21T00:13:06.272Z,4.50
2019-02-21T00:18:11.998Z,5.27
2019-02-21T00:23:16.700Z,5.23
2019-02-21T00:28:21.657Z,4.97
2019-02-21T00:33:26.342Z,5.27
2019-02-21T00:38:31.120Z,5.23
2019-02-21T00:43:35.810Z,5.47
2019-02-21T00:48:40.498Z,5.07
2019-02-21T00:53:46.149Z,4.80
2019-02-21T00:58:50.843Z,5.23
2019-02-21T01:03:55.566Z,5.60
2019-02-21T01:09:00.315Z,5.57
2019-02-21T01:14:05.420Z,5.60
2019-02-21T01:19:10.179Z,5.83
2019-02-21T01:24:14.889Z,6.40
2019-02-21T21:06:01.909Z,24.10
2019-02-21T21:11:06.698Z,26.13
2019-02-21T21:16:11.422Z,25.85
2019-02-21T21:21:16.155Z,26.63
2019-02-21T21:26:20.857Z,24.87
2019-02-21T21:31:25.594Z,24.13
2019-02-21T21:36:30.323Z,27.10
2019-02-21T21:41:35.184Z,24.27
2019-02-21T21:46:40.001Z,25.90
2019-02-21T21:51:45.878Z,24.40
2019-02-21T21:56:50.752Z,27.00
2019-02-21T22:05:07.212Z,27.83
2019-02-21T22:10:12.499Z,26.77
2019-02-21T22:15:17.647Z,26.43
2019-02-21T22:20:22.435Z,27.60
2019-02-21T22:25:27.222Z,25.70
2019-02-21T22:30:32.000Z,25.90
2019-02-21T22:35:37.949Z,24.60
2019-02-21T22:40:42.724Z,22.77
2019-02-21T22:45:47.636Z,23.63
2019-02-21T22:50:52.321Z,21.33
2019-02-21T22:55:57.015Z,20.93
2019-02-21T23:01:26.365Z,19.40
2019-02-21T23:06:49.091Z,18.40
2019-02-21T23:11:53.932Z,20.47
2019-02-21T23:16:58.759Z,17.70
2019-02-21T23:22:04.421Z,18.27
2019-02-21T23:27:09.573Z,18.30
2019-02-21T23:32:14.277Z,15.27
2019-02-21T23:37:19.032Z,17.33
2019-02-21T23:42:23.752Z,15.10
2019-02-21T23:47:28.589Z,17.40
2019-02-21T23:52:33.295Z,13.70
2019-02-21T23:57:37.998Z,13.43
